Kezdőlap
METAR-TAF:

METAR-TAF

Repülőterek :

Hefei, Kína

földrajzi szélesség: 31-52N, földrajzi hosszúság: 117-14E, magasság: 36 m

Jelenlegi meteorológiai megfigyelések

A jelentés 28 perccel ezelõtt készült, 22:00 UTC
Dél-délkeleti szél 8 kt
Hőmérséklet 27°C
Páratartalom 89%
Légköri nyomás 1005 hPa
Látótávolság 10 km, vagy több
felhőtlen 1500 m magasságban, és nincs gomolyfelhõ

METAR: ZSOF 202200Z 16004MPS CAVOK 27/25 Q1005 NOSIG

Idő: 06:28 (22:28 UTC)

Előrejelzés

A jelentés 7 órával és 27 perccel ezelõtt készült, 15:01 UTC
Az előrejelzés 20-én 18 óra UTC és 21-én 18 óra UTC között érvényes
Déli szél 8 kt
Látótávolság: 6000 m

TAF: ZSOF 201501Z 2018/2118 19004MPS 6000 NSC TX37/2106Z TN26/2021Z

Meteorológiai megfigyelések és előrejelzések több, mint 4000 repülőtéren (METAR és TAF jelentéseket).

A térképen piros és sárga pontok jelzik az elérhető meteorológiai állomásokat.

Mozgassa az egeret a pont fölött, hogy megjelenjen az állomás neve.

Azután kattintson az időjárási megfigyelések és előrejelzések megtekintéséhez.

A térkép megváltoztatása: kattintson a fekete keresztel jelölt zöld gombra ráközelítéshez, a vonallal jelölt zöld gombra távolításhoz, vagy a zöld nyilakra a szomszédos térképek eléréséhez.


METAR-TAF: